Time;durP1;ratioP1;P1;durP2;ratioP2;P2;SDS_P1;SDS_P2;PMS_P1;PMS_P2;Temp;Humidity;BMP_temperature;BMP_pressure;BME280_temperature;BME280_humidity;BME280_pressure;Samples;Min_cycle;Max_cycle;Signal;HPM_P1;HPM_P2
2024/03/20 00:00:56;;;;;;;3.03;1.27;;;;;;;6.12;73.59;101882.09;2086872;28;20573;-62
2024/03/20 00:01:56;;;;;;;2.42;1.02;;;;;;;6.10;73.90;101876.19;2093465;28;20661;-63
2024/03/20 00:02:57;;;;;;;1.80;1.03;;;;;;;6.17;73.76;101884.53;2086312;28;20573;-62
2024/03/20 00:03:58;;;;;;;2.37;1.20;;;;;;;5.98;73.55;101859.88;2085532;28;20249;-63
2024/03/20 00:04:58;;;;;;;1.80;1.37;;;;;;;6.18;73.39;101886.91;2084365;28;20196;-63
2024/03/20 00:05:58;;;;;;;1.80;1.30;;;;;;;6.10;73.34;101876.19;2090774;28;20214;-63
2024/03/20 00:06:59;;;;;;;1.70;0.93;;;;;;;6.11;73.50;101886.03;2086405;28;20219;-63
2024/03/20 00:07:59;;;;;;;2.27;0.80;;;;;;;6.11;74.04;101892.31;2086288;28;20239;-63
2024/03/20 00:09:01;;;;;;;2.97;1.30;;;;;;;5.41;73.85;101778.47;2084990;28;20216;-62
2024/03/20 00:10:01;;;;;;;2.72;1.20;;;;;;;6.07;74.17;101888.72;2087053;28;20568;-63
2024/03/20 00:11:02;;;;;;;2.30;1.43;;;;;;;6.10;74.30;101887.19;2089638;28;20349;-63
2024/03/20 00:12:03;;;;;;;3.00;1.40;;;;;;;6.05;74.17;101882.78;2090759;28;20183;-62
2024/03/20 00:13:03;;;;;;;1.70;1.10;;;;;;;6.12;74.52;101882.09;2086156;28;20187;-62
2024/03/20 00:14:07;;;;;;;2.30;1.13;;;;;;;6.08;74.28;101882.06;2086975;28;20737;-62
2024/03/20 00:15:09;;;;;;;1.73;1.33;;;;;;;5.15;74.67;101756.47;2084358;28;20200;-63
2024/03/20 00:16:10;;;;;;;3.03;1.30;;;;;;;6.13;75.30;101883.69;2085026;28;20203;-62
2024/03/20 00:17:10;;;;;;;2.78;1.17;;;;;;;5.82;75.16;101840.00;2088247;28;20203;-63
2024/03/20 00:18:14;;;;;;;3.30;1.47;;;;;;;6.13;75.62;101883.69;2086612;28;20192;-63
2024/03/20 00:19:14;;;;;;;2.03;1.10;;;;;;;6.00;75.17;101869.34;2091389;28;20282;-63
2024/03/20 00:20:15;;;;;;;2.20;1.30;;;;;;;6.14;75.66;101888.81;2086763;28;20187;-62
2024/03/20 00:21:16;;;;;;;2.27;1.43;;;;;;;5.17;75.26;101734.09;2085930;28;20200;-62
2024/03/20 00:22:17;;;;;;;2.20;1.33;;;;;;;6.18;75.63;101894.38;2086272;28;20265;-63
2024/03/20 00:23:18;;;;;;;3.47;1.63;;;;;;;6.18;75.54;101886.09;2086165;28;20196;-62
2024/03/20 00:24:18;;;;;;;2.47;1.43;;;;;;;6.21;75.59;101890.88;2090458;28;20207;-63
2024/03/20 00:25:19;;;;;;;2.13;1.20;;;;;;;6.08;74.88;101871.03;2086306;28;20274;-62
2024/03/20 00:26:19;;;;;;;1.93;1.00;;;;;;;6.19;74.59;101891.25;2093758;28;20567;-63
2024/03/20 00:27:23;;;;;;;2.60;1.43;;;;;;;6.18;74.63;101897.94;2087400;28;20229;-63
2024/03/20 00:28:23;;;;;;;2.35;1.33;;;;;;;6.17;75.11;101892.78;2087708;28;20195;-62
2024/03/20 00:29:24;;;;;;;1.93;1.13;;;;;;;6.18;75.03;101891.63;2086405;28;20214;-63
2024/03/20 00:30:24;;;;;;;2.60;1.50;;;;;;;6.19;74.64;101890.44;2086816;28;20203;-63
2024/03/20 00:31:25;;;;;;;1.63;1.33;;;;;;;6.20;74.49;101897.56;2087021;28;20667;-63
2024/03/20 00:32:25;;;;;;;2.63;1.43;;;;;;;6.21;74.39;101899.13;2088390;28;20181;-62
2024/03/20 00:33:26;;;;;;;4.27;1.67;;;;;;;6.13;74.81;101881.72;2087153;28;20230;-62
2024/03/20 00:34:26;;;;;;;7.67;1.70;;;;;;;6.18;74.64;101888.88;2087030;28;20560;-63
2024/03/20 00:35:28;;;;;;;3.17;1.60;;;;;;;6.16;74.33;101891.97;2086412;28;20213;-63
2024/03/20 00:36:31;;;;;;;2.93;1.40;;;;;;;6.15;73.99;101881.38;2086515;28;20200;-62
2024/03/20 00:37:31;;;;;;;2.70;1.50;;;;;;;6.08;74.59;101870.25;2088347;28;20738;-63
2024/03/20 00:38:32;;;;;;;2.40;1.10;;;;;;;5.40;75.20;101756.84;2095019;28;20611;-63
2024/03/20 00:39:33;;;;;;;3.00;1.50;;;;;;;6.19;75.67;101882.19;2087277;28;20719;-62
2024/03/20 00:40:33;;;;;;;5.23;1.20;;;;;;;6.14;75.04;101883.31;2086458;28;20212;-62
2024/03/20 00:41:34;;;;;;;2.93;1.37;;;;;;;6.12;74.80;101880.16;2086873;28;20208;-63
2024/03/20 00:42:35;;;;;;;2.47;1.50;;;;;;;6.09;75.77;101877.31;2085994;28;20677;-63
2024/03/20 00:43:36;;;;;;;2.90;1.60;;;;;;;6.02;75.20;101875.28;2085790;28;20189;-63
2024/03/20 00:44:36;;;;;;;2.75;1.15;;;;;;;5.36;75.06;101777.97;2086684;28;20247;-63
2024/03/20 00:45:37;;;;;;;3.07;1.63;;;;;;;5.97;75.36;101872.84;2091038;28;20191;-62
2024/03/20 00:46:38;;;;;;;4.50;1.80;;;;;;;5.94;75.63;101870.84;2086636;28;20224;-63
2024/03/20 00:47:38;;;;;;;3.30;1.20;;;;;;;5.37;75.24;101790.53;2086272;28;20183;-62
2024/03/20 00:48:39;;;;;;;3.20;1.37;;;;;;;5.95;75.10;101888.91;2085322;28;20250;-63
2024/03/20 00:49:40;;;;;;;3.90;2.00;;;;;;;5.57;74.67;101817.59;2086499;28;20186;-63
2024/03/20 00:50:41;;;;;;;2.80;1.20;;;;;;;5.94;75.79;101876.34;2085908;28;20193;-63
2024/03/20 00:51:41;;;;;;;4.27;1.70;;;;;;;5.98;76.01;101871.69;2090065;28;20184;-63
2024/03/20 00:52:42;;;;;;;5.77;1.70;;;;;;;5.95;76.32;101868.88;2086739;28;20202;-63
2024/03/20 00:53:42;;;;;;;2.80;1.73;;;;;;;5.95;76.20;101877.91;2089973;28;20682;-63
2024/03/20 00:54:45;;;;;;;3.43;1.60;;;;;;;5.77;76.03;101848.53;2089880;28;20283;-63
2024/03/20 00:55:46;;;;;;;2.78;1.63;;;;;;;5.92;76.49;101870.41;2086740;28;20273;-62
2024/03/20 00:56:46;;;;;;;3.60;1.40;;;;;;;5.95;76.62;101868.88;2086189;28;20185;-62
2024/03/20 00:57:47;;;;;;;3.77;1.83;;;;;;;5.92;76.40;101864.13;2088662;28;20180;-63
2024/03/20 00:58:47;;;;;;;4.00;2.00;;;;;;;5.92;76.39;101862.16;2092193;28;20270;-63
2024/03/20 00:59:48;;;;;;;3.43;1.87;;;;;;;5.91;77.79;101859.78;2087996;28;20203;-62
2024/03/20 01:00:49;;;;;;;2.73;1.70;;;;;;;5.93;77.00;101865.69;2085414;28;20280;-63
2024/03/20 01:01:49;;;;;;;3.40;1.50;;;;;;;5.90;77.52;101867.22;2086236;28;20204;-63
2024/03/20 01:02:50;;;;;;;3.90;1.97;;;;;;;5.91;77.52;101865.28;2085247;28;20187;-63
2024/03/20 01:03:51;;;;;;;4.20;1.90;;;;;;;5.91;76.93;101868.84;2089680;28;20258;-63
2024/03/20 01:04:51;;;;;;;3.50;1.67;;;;;;;5.85;77.59;101859.28;2086431;28;20573;-63
2024/03/20 01:05:54;;;;;;;4.00;2.00;;;;;;;5.84;77.73;101857.72;2086208;28;20188;-62
2024/03/20 01:06:54;;;;;;;3.42;1.77;;;;;;;5.80;78.22;101861.59;2084655;28;20204;-63
2024/03/20 01:07:55;;;;;;;2.47;1.60;;;;;;;5.81;77.90;101863.97;2090058;28;20198;-62
2024/03/20 01:08:55;;;;;;;4.00;2.17;;;;;;;4.76;77.70;101693.78;2085559;28;20950;-63
2024/03/20 01:09:56;;;;;;;3.27;1.50;;;;;;;5.92;77.72;101864.91;2092976;28;20186;-63
2024/03/20 01:10:56;;;;;;;3.43;1.63;;;;;;;5.70;77.86;101821.69;2091384;28;20195;-62
2024/03/20 01:11:57;;;;;;;4.17;1.97;;;;;;;5.91;77.87;101866.09;2088890;28;20192;-63
2024/03/20 01:12:57;;;;;;;3.17;1.80;;;;;;;5.85;77.87;101862.03;2085793;28;20819;-62
2024/03/20 01:13:58;;;;;;;3.37;2.00;;;;;;;5.81;78.43;101871.41;2086726;28;20188;-62
2024/03/20 01:14:59;;;;;;;3.17;1.87;;;;;;;5.81;77.98;101872.22;2085041;28;20187;-63
2024/03/20 01:16:00;;;;;;;3.00;1.67;;;;;;;5.84;78.83;101865.19;2094032;28;20214;-62
2024/03/20 01:17:00;;;;;;;4.65;2.17;;;;;;;5.80;78.42;101858.84;2093631;28;20199;-63
2024/03/20 01:18:01;;;;;;;3.03;1.70;;;;;;;5.59;78.35;101842.75;2089746;28;20725;-62
2024/03/20 01:19:03;;;;;;;4.32;2.13;;;;;;;5.77;78.92;101856.78;2089606;28;20239;-63
2024/03/20 01:20:05;;;;;;;4.18;1.88;;;;;;;5.75;78.55;101862.66;2086666;28;20211;-62
2024/03/20 01:21:06;;;;;;;3.05;1.77;;;;;;;5.77;78.69;101862.28;2084918;28;20272;-63
2024/03/20 01:22:07;;;;;;;4.20;1.95;;;;;;;5.76;78.61;101864.25;2088431;28;20184;-63
2024/03/20 01:23:07;;;;;;;2.63;1.57;;;;;;;5.83;78.59;101863.56;2085207;28;20279;-62
2024/03/20 01:24:08;;;;;;;3.03;1.77;;;;;;;5.81;78.89;101857.66;2086314;28;20192;-63
2024/03/20 01:25:09;;;;;;;3.30;1.70;;;;;;;5.81;78.31;101863.16;2084304;28;20583;-62
2024/03/20 01:26:09;;;;;;;3.10;1.65;;;;;;;5.10;78.40;101736.72;2085774;28;20583;-63
2024/03/20 01:27:10;;;;;;;3.53;1.67;;;;;;;5.81;78.62;101855.72;2085998;28;20185;-63
2024/03/20 01:28:10;;;;;;;4.03;1.77;;;;;;;5.83;78.52;101853.38;2088065;28;20195;-62
2024/03/20 01:29:11;;;;;;;3.07;1.90;;;;;;;5.84;78.41;101854.19;2085485;28;20216;-63
2024/03/20 01:30:12;;;;;;;3.60;1.67;;;;;;;5.86;78.19;101855.41;2086025;28;20185;-63
2024/03/20 01:31:13;;;;;;;2.67;1.67;;;;;;;5.83;78.42;101858.88;2086537;28;20184;-63
2024/03/20 01:32:13;;;;;;;3.53;1.87;;;;;;;5.75;78.61;101861.88;2087467;28;20257;-63
2024/03/20 01:33:14;;;;;;;2.90;1.57;;;;;;;5.74;78.42;101854.78;2092419;28;20255;-63
2024/03/20 01:34:14;;;;;;;3.10;1.73;;;;;;;5.75;79.00;101853.63;2088142;28;20195;-63
2024/03/20 01:35:15;;;;;;;2.97;1.50;;;;;;;5.74;79.23;101863.03;2086182;28;20719;-63
2024/03/20 01:36:15;;;;;;;2.50;1.50;;;;;;;5.77;79.42;101860.34;2085381;28;20198;-63
2024/03/20 01:37:16;;;;;;;4.10;2.00;;;;;;;5.68;78.69;101851.53;2086105;28;20252;-63
2024/03/20 01:38:16;;;;;;;3.57;2.00;;;;;;;5.69;78.88;101849.59;2085323;28;20195;-62
2024/03/20 01:39:18;;;;;;;2.57;1.50;;;;;;;5.21;79.84;101770.66;2085580;28;20263;-63
2024/03/20 01:40:19;;;;;;;2.67;1.58;;;;;;;4.85;79.67;101736.34;2088322;28;20182;-62
2024/03/20 01:41:19;;;;;;;3.63;1.60;;;;;;;5.51;80.24;101830.06;2085459;28;20674;-62
2024/03/20 01:42:20;;;;;;;3.03;1.60;;;;;;;5.53;80.49;101846.22;2084847;28;20296;-62
2024/03/20 01:43:21;;;;;;;3.30;1.80;;;;;;;5.51;80.32;101843.00;2089679;28;20210;-63
2024/03/20 01:44:21;;;;;;;3.20;1.70;;;;;;;5.49;82.09;101837.09;2090240;28;20194;-63
2024/03/20 01:45:22;;;;;;;5.00;2.00;;;;;;;5.46;82.70;101832.31;2086631;28;20177;-63
2024/03/20 01:46:31;;;;;;;4.53;1.77;;;;;;;5.36;81.91;101835.69;2093197;28;20188;-62
2024/03/20 01:47:31;;;;;;;5.60;2.47;;;;;;;5.27;82.74;101846.13;2088420;28;20215;-62
2024/03/20 01:48:32;;;;;;;3.80;2.43;;;;;;;5.28;83.18;101828.50;2084827;28;20703;-62
2024/03/20 01:49:34;;;;;;;4.20;2.10;;;;;;;5.27;82.78;101840.63;2087257;28;20743;-62
2024/03/20 01:50:34;;;;;;;3.08;1.50;;;;;;;5.29;82.95;101833.63;2088871;28;20207;-62
2024/03/20 01:51:37;;;;;;;3.27;1.90;;;;;;;4.35;83.57;101686.41;2086756;28;20211;-63
2024/03/20 01:52:52;;;;;;;3.17;1.80;;;;;;;5.04;83.64;101812.38;2085188;28;20553;-63
2024/03/20 01:53:57;;;;;;;3.53;1.58;;;;;;;5.21;84.21;101839.38;2086638;28;20173;-63
2024/03/20 01:54:58;;;;;;;3.35;1.60;;;;;;;5.25;84.03;101835.53;2085100;28;20662;-62
2024/03/20 01:55:59;;;;;;;2.67;1.60;;;;;;;5.17;84.45;101833.00;2088638;28;20242;-63
2024/03/20 01:56:59;;;;;;;4.80;1.83;;;;;;;4.65;84.74;101744.97;2085614;28;20232;-63
2024/03/20 01:58:00;;;;;;;4.43;2.47;;;;;;;4.90;85.16;101781.91;2089781;28;20758;-62
2024/03/20 01:59:01;;;;;;;5.00;2.47;;;;;;;5.20;85.06;101832.28;2089419;28;20645;-62
2024/03/20 02:00:02;;;;;;;3.23;1.80;;;;;;;5.20;86.47;101841.34;2086238;28;20245;-63
2024/03/20 02:01:02;;;;;;;2.78;1.70;;;;;;;5.20;87.63;101837.78;2085290;28;20578;-63
2024/03/20 02:02:03;;;;;;;2.63;1.60;;;;;;;5.20;86.87;101838.59;2088097;28;20193;-62
2024/03/20 02:03:05;;;;;;;3.97;1.73;;;;;;;5.24;87.22;101835.91;2085190;28;20681;-63
2024/03/20 02:04:07;;;;;;;6.93;1.60;;;;;;;5.27;87.40;101835.16;2086169;28;20200;-63
2024/03/20 02:05:07;;;;;;;5.38;1.75;;;;;;;5.18;87.11;101831.88;2085092;28;20330;-62
2024/03/20 02:06:20;;;;;;;3.63;1.67;;;;;;;5.21;87.06;101833.88;2086461;28;20212;-62
2024/03/20 02:07:21;;;;;;;3.45;1.45;;;;;;;5.26;87.89;101828.88;2085922;28;20232;-63
2024/03/20 02:08:21;;;;;;;5.20;1.73;;;;;;;5.29;88.29;101830.09;2085436;28;20228;-62
2024/03/20 02:09:22;;;;;;;4.63;2.20;;;;;;;4.35;86.72;101692.69;2095239;28;20195;-63
2024/03/20 02:10:24;;;;;;;4.37;2.13;;;;;;;5.32;86.86;101832.91;2085580;28;20200;-62
2024/03/20 02:11:26;;;;;;;3.72;1.88;;;;;;;5.32;86.19;101832.91;2084522;28;20733;-63
2024/03/20 02:12:26;;;;;;;4.07;1.90;;;;;;;5.30;87.05;101832.47;2084964;28;20250;-63
2024/03/20 02:13:27;;;;;;;3.93;1.80;;;;;;;5.31;86.64;101836.81;2087967;28;20278;-63
2024/03/20 02:14:27;;;;;;;2.60;1.70;;;;;;;5.31;86.09;101838.75;2085185;28;20616;-62
2024/03/20 02:15:28;;;;;;;2.93;1.80;;;;;;;5.33;86.21;101847.44;2095326;28;20214;-63
2024/03/20 02:16:28;;;;;;;3.40;1.80;;;;;;;5.30;87.36;101839.91;2085290;28;20280;-63
2024/03/20 02:17:29;;;;;;;4.10;2.00;;;;;;;4.82;87.38;101767.25;2085770;28;20197;-63
2024/03/20 02:18:29;;;;;;;3.03;1.70;;;;;;;5.30;86.64;101842.66;2085400;28;20249;-63
2024/03/20 02:19:31;;;;;;;3.03;1.90;;;;;;;5.00;86.74;101800.53;2087119;28;20630;-63
2024/03/20 02:20:31;;;;;;;4.45;2.20;;;;;;;5.27;86.93;101840.63;2085343;28;20196;-63
2024/03/20 02:21:32;;;;;;;5.43;2.17;;;;;;;5.25;87.03;101843.78;2088063;28;20196;-62
2024/03/20 02:22:40;;;;;;;4.50;2.00;;;;;;;5.22;88.88;101839.00;2085466;28;20589;-63
2024/03/20 02:23:40;;;;;;;5.13;1.90;;;;;;;4.30;88.03;101709.44;2086141;28;20196;-62
2024/03/20 02:24:41;;;;;;;2.90;1.60;;;;;;;5.19;88.56;101842.47;2087188;28;20262;-63
2024/03/20 02:25:41;;;;;;;3.60;1.50;;;;;;;5.18;88.33;101848.38;2088713;28;20196;-62
2024/03/20 02:26:42;;;;;;;4.37;1.47;;;;;;;5.17;88.00;101841.25;2091081;28;20274;-62
2024/03/20 02:27:42;;;;;;;4.10;1.83;;;;;;;5.19;89.19;101850.72;2089220;28;20187;-62
2024/03/20 02:28:44;;;;;;;6.03;1.80;;;;;;;5.25;89.25;101852.03;2087389;28;20220;-62
2024/03/20 02:29:45;;;;;;;4.47;2.33;;;;;;;5.06;89.91;101824.59;2085511;28;20298;-62
2024/03/20 02:30:45;;;;;;;4.77;2.40;;;;;;;5.25;88.72;101854.78;2085436;28;20193;-62
2024/03/20 02:31:46;;;;;;;6.03;2.47;;;;;;;5.13;88.46;101834.94;2085577;28;20229;-63
2024/03/20 02:32:46;;;;;;;2.97;1.90;;;;;;;5.10;88.86;101830.16;2085410;28;20186;-63
2024/03/20 02:33:47;;;;;;;4.67;2.10;;;;;;;5.29;88.41;101854.84;2093049;28;20179;-63
2024/03/20 02:34:47;;;;;;;4.50;2.00;;;;;;;5.14;89.11;101823.53;2087167;28;20278;-63
2024/03/20 02:35:52;;;;;;;5.50;2.20;;;;;;;5.19;90.01;101845.22;2087622;28;20188;-62
2024/03/20 02:36:53;;;;;;;3.00;1.70;;;;;;;5.29;90.76;101849.34;2087386;28;20757;-62
2024/03/20 02:37:53;;;;;;;4.10;1.97;;;;;;;5.29;90.16;101855.59;2091948;28;20224;-63
2024/03/20 02:38:54;;;;;;;3.27;1.70;;;;;;;5.28;90.06;101848.53;2085350;28;20268;-62
2024/03/20 02:39:55;;;;;;;3.47;1.93;;;;;;;5.33;88.93;101845.47;2085409;28;20199;-63
2024/03/20 02:40:56;;;;;;;4.07;1.73;;;;;;;4.72;88.59;101750.63;2091981;28;20621;-63
2024/03/20 02:41:56;;;;;;;4.80;2.60;;;;;;;5.33;88.21;101848.22;2085656;28;20694;-62
2024/03/20 02:42:57;;;;;;;6.27;2.50;;;;;;;5.37;88.31;101842.78;2085648;28;20592;-63
2024/03/20 02:43:58;;;;;;;4.97;1.83;;;;;;;5.03;87.84;101800.59;2086689;28;20189;-63
2024/03/20 02:44:58;;;;;;;4.77;2.10;;;;;;;5.33;88.42;101864.72;2089690;28;20224;-62
2024/03/20 02:45:59;;;;;;;2.60;1.67;;;;;;;5.39;87.39;101837.72;2091350;28;20215;-63
2024/03/20 02:47:00;;;;;;;4.90;2.17;;;;;;;5.32;86.95;101848.59;2087559;28;20686;-62
2024/03/20 02:48:00;;;;;;;3.70;2.03;;;;;;;5.22;87.40;101833.50;2085645;28;20198;-63
2024/03/20 02:49:01;;;;;;;4.57;2.00;;;;;;;5.37;86.79;101851.03;2089932;28;20351;-63
2024/03/20 02:50:01;;;;;;;5.83;2.20;;;;;;;5.43;86.38;101855.06;2085583;28;20189;-62
2024/03/20 02:51:03;;;;;;;4.70;2.13;;;;;;;5.41;85.85;101849.94;2084714;28;20217;-63
2024/03/20 02:52:03;;;;;;;5.07;2.00;;;;;;;5.43;85.88;101861.34;2085576;28;20268;-62
2024/03/20 02:53:04;;;;;;;5.17;2.30;;;;;;;5.48;85.90;101852.78;2087461;28;20260;-62
2024/03/20 02:54:04;;;;;;;7.00;2.27;;;;;;;5.45;85.17;101850.78;2085784;28;20278;-63
2024/03/20 02:55:05;;;;;;;5.33;2.20;;;;;;;5.51;86.02;101859.50;2084806;28;20650;-62
2024/03/20 02:56:06;;;;;;;3.63;2.00;;;;;;;5.18;85.96;101812.63;2087180;28;20198;-62
2024/03/20 02:57:06;;;;;;;6.67;2.30;;;;;;;5.54;87.83;101859.56;2089613;28;20206;-63
2024/03/20 02:58:07;;;;;;;6.00;2.33;;;;;;;5.57;88.93;101860.78;2085754;28;20197;-62
2024/03/20 02:59:07;;;;;;;5.43;1.97;;;;;;;5.56;89.30;101857.25;2087246;28;20274;-62
2024/03/20 03:00:10;;;;;;;4.07;1.93;;;;;;;5.57;87.00;101861.59;2085201;28;20188;-63
2024/03/20 03:01:10;;;;;;;4.53;2.00;;;;;;;5.52;87.35;101861.09;2085186;28;20196;-62
2024/03/20 03:02:11;;;;;;;5.70;2.67;;;;;;;5.61;86.18;101862.44;2088483;28;20189;-62
2024/03/20 03:03:12;;;;;;;4.27;2.30;;;;;;;5.60;85.28;101858.09;2084597;28;20210;-62
2024/03/20 03:04:12;;;;;;;6.90;2.70;;;;;;;5.61;85.40;101869.88;2085083;28;20188;-62
2024/03/20 03:05:13;;;;;;;5.00;2.77;;;;;;;5.58;85.53;101865.91;2086359;28;20181;-62
2024/03/20 03:06:15;;;;;;;5.07;2.10;;;;;;;5.26;84.50;101806.09;2086599;28;20527;-63
2024/03/20 03:07:16;;;;;;;3.70;1.90;;;;;;;5.57;84.29;101867.09;2085557;28;20238;-62
2024/03/20 03:08:17;;;;;;;4.40;2.33;;;;;;;5.56;84.38;101867.44;2085198;28;20185;-63
2024/03/20 03:09:17;;;;;;;4.20;2.17;;;;;;;5.48;84.57;101847.28;2088840;28;21013;-62
2024/03/20 03:10:25;;;;;;;4.73;1.87;;;;;;;5.47;84.40;101845.72;2090233;28;20188;-62
2024/03/20 03:11:27;;;;;;;3.25;2.08;;;;;;;5.61;83.99;101856.94;2090159;28;20191;-63
2024/03/20 03:12:27;;;;;;;3.42;2.10;;;;;;;5.42;84.26;101836.97;2087293;28;20181;-63
2024/03/20 03:13:28;;;;;;;3.53;1.97;;;;;;;4.89;84.51;101747.38;2085750;28;20202;-63
2024/03/20 03:14:28;;;;;;;3.63;2.07;;;;;;;5.06;84.14;101780.63;2085003;28;20251;-62
2024/03/20 03:15:33;;;;;;;4.30;2.30;;;;;;;5.64;83.98;101869.94;2087868;28;20219;-63
2024/03/20 03:16:33;;;;;;;4.22;2.10;;;;;;;5.63;82.83;101851.06;2089196;28;20192;-63
2024/03/20 03:17:34;;;;;;;4.23;2.10;;;;;;;5.59;82.87;101862.00;2088795;28;20189;-62
2024/03/20 03:18:35;;;;;;;3.97;2.03;;;;;;;5.63;82.80;101865.59;2085934;28;20221;-62
2024/03/20 03:19:35;;;;;;;5.40;2.30;;;;;;;5.65;83.38;101862.50;2086447;28;20195;-62
2024/03/20 03:20:36;;;;;;;5.67;2.27;;;;;;;5.68;83.30;101870.78;2085094;28;20201;-62
2024/03/20 03:21:36;;;;;;;3.80;1.90;;;;;;;5.70;82.99;101873.19;2084968;28;20198;-63
2024/03/20 03:22:37;;;;;;;3.77;2.03;;;;;;;5.65;83.09;101870.75;2085184;28;20201;-63
2024/03/20 03:23:38;;;;;;;4.57;2.23;;;;;;;5.66;83.35;101862.13;2088301;28;20189;-63
2024/03/20 03:24:38;;;;;;;3.83;2.00;;;;;;;5.65;83.05;101860.53;2084154;28;20498;-62
2024/03/20 03:25:39;;;;;;;4.67;2.37;;;;;;;5.34;83.00;101821.53;2086270;28;20200;-63
2024/03/20 03:26:39;;;;;;;5.50;1.83;;;;;;;5.68;82.34;101876.31;2084616;28;20198;-63
2024/03/20 03:27:40;;;;;;;6.53;2.50;;;;;;;5.08;83.29;101781.06;2090610;28;20249;-62
2024/03/20 03:28:41;;;;;;;3.83;2.13;;;;;;;5.69;82.52;101879.84;2088534;28;20209;-63
2024/03/20 03:29:41;;;;;;;3.93;1.63;;;;;;;5.66;82.32;101873.13;2087179;28;20197;-63
2024/03/20 03:30:42;;;;;;;4.67;2.43;;;;;;;5.65;82.78;101879.78;2088337;28;21014;-62
2024/03/20 03:31:42;;;;;;;4.73;1.93;;;;;;;5.62;83.54;101874.22;2087048;28;20200;-63
2024/03/20 03:32:43;;;;;;;3.57;2.10;;;;;;;5.65;83.28;101877.03;2084820;28;20308;-63
2024/03/20 03:33:43;;;;;;;6.77;2.10;;;;;;;5.68;83.10;101872.75;2085754;28;20219;-62
2024/03/20 03:34:47;;;;;;;5.30;2.10;;;;;;;5.68;84.83;101881.00;2089368;28;20338;-62
2024/03/20 03:35:48;;;;;;;6.88;2.40;;;;;;;5.65;84.10;101876.25;2085325;28;20679;-63
2024/03/20 03:36:48;;;;;;;5.37;1.70;;;;;;;5.65;84.51;101873.50;2085113;28;20733;-63
2024/03/20 03:37:49;;;;;;;6.97;2.10;;;;;;;5.65;85.76;101870.75;2094944;28;20184;-62
2024/03/20 03:38:49;;;;;;;3.80;1.93;;;;;;;5.12;84.58;101795.66;2092235;28;20218;-63
2024/03/20 03:39:51;;;;;;;4.13;2.00;;;;;;;5.62;86.35;101875.03;2085238;28;20198;-62
2024/03/20 03:41:00;;;;;;;4.43;1.90;;;;;;;5.58;85.71;101867.88;2084041;28;20206;-63
2024/03/20 03:42:00;;;;;;;3.50;1.90;;;;;;;5.53;85.29;101868.19;2089826;28;20199;-63
2024/03/20 03:43:01;;;;;;;2.37;1.67;;;;;;;5.45;85.01;101872.78;2091106;28;20190;-62
2024/03/20 03:44:03;;;;;;;4.30;2.23;;;;;;;4.78;85.36;101765.63;2086546;28;20182;-62
2024/03/20 03:45:04;;;;;;;4.80;2.22;;;;;;;5.39;85.42;101859.72;2090173;28;20312;-63
2024/03/20 03:46:05;;;;;;;2.90;1.93;;;;;;;5.47;85.78;101872.41;2084900;28;20281;-62
2024/03/20 03:47:05;;;;;;;3.33;2.10;;;;;;;5.41;86.09;101879.38;2085427;28;20198;-62
2024/03/20 03:48:06;;;;;;;3.50;2.20;;;;;;;5.42;86.58;101872.72;2085270;28;20241;-62
2024/03/20 03:49:08;;;;;;;5.80;2.27;;;;;;;5.41;86.81;101876.63;2088470;28;20581;-62
2024/03/20 03:50:09;;;;;;;4.50;2.13;;;;;;;4.98;86.74;101831.13;2084963;28;20643;-62
2024/03/20 03:51:09;;;;;;;3.97;2.30;;;;;;;5.26;87.11;101861.06;2086714;28;20545;-62
2024/03/20 03:52:10;;;;;;;4.30;2.33;;;;;;;5.33;87.83;101889.44;2087724;28;20198;-63
2024/03/20 03:53:10;;;;;;;4.37;2.07;;;;;;;5.29;88.31;101890.56;2084829;28;20185;-62
2024/03/20 03:54:11;;;;;;;3.70;2.00;;;;;;;5.26;88.34;101892.09;2088539;28;20270;-62
2024/03/20 03:55:11;;;;;;;5.63;2.00;;;;;;;5.20;88.99;101877.06;2092445;28;20180;-63
2024/03/20 03:56:12;;;;;;;6.17;2.37;;;;;;;5.28;89.63;101887.00;2093719;28;20180;-62
2024/03/20 03:57:13;;;;;;;3.20;1.90;;;;;;;5.27;89.62;101895.63;2088338;28;20274;-62
2024/03/20 03:58:14;;;;;;;3.43;1.83;;;;;;;5.28;89.40;101898.00;2091947;28;20230;-63
2024/03/20 03:59:14;;;;;;;7.53;2.17;;;;;;;5.22;89.60;101891.22;2093196;28;20715;-62
2024/03/20 04:00:15;;;;;;;4.77;2.43;;;;;;;5.25;89.54;101896.00;2087978;28;20590;-62
2024/03/20 04:01:16;;;;;;;3.38;1.92;;;;;;;5.19;89.83;101897.44;2085135;28;20192;-62
2024/03/20 04:02:17;;;;;;;3.73;2.07;;;;;;;5.15;90.53;101888.38;2088623;28;20237;-62
2024/03/20 04:03:23;;;;;;;5.00;2.30;;;;;;;5.24;90.87;101894.38;2088525;28;20189;-63
2024/03/20 04:04:23;;;;;;;3.13;1.77;;;;;;;5.19;91.17;101897.44;2085494;28;20200;-62
2024/03/20 04:05:24;;;;;;;2.97;1.70;;;;;;;5.18;90.70;101901.34;2086874;28;20193;-62
2024/03/20 04:06:25;;;;;;;4.03;2.07;;;;;;;5.22;91.58;101898.66;2085824;28;20188;-62
2024/03/20 04:07:25;;;;;;;4.90;2.27;;;;;;;5.14;91.59;101889.50;2089085;28;20287;-62
2024/03/20 04:08:26;;;;;;;6.93;1.77;;;;;;;5.20;91.75;101901.00;2086180;28;20184;-62
2024/03/20 04:09:26;;;;;;;4.90;2.40;;;;;;;5.22;92.09;101901.41;2089240;28;20196;-62
2024/03/20 04:10:27;;;;;;;10.07;2.13;;;;;;;5.19;92.34;101896.66;2086805;28;20205;-62
2024/03/20 04:11:29;;;;;;;4.33;2.50;;;;;;;5.20;92.33;101901.00;2086625;28;20688;-62
2024/03/20 04:12:29;;;;;;;4.63;2.20;;;;;;;5.20;92.54;101898.25;2089800;28;20203;-62
2024/03/20 04:13:30;;;;;;;4.37;2.33;;;;;;;5.24;93.05;101902.63;2087056;28;20205;-62
2024/03/20 04:14:30;;;;;;;5.17;2.27;;;;;;;5.23;93.09;101894.78;2092826;28;20298;-63
2024/03/20 04:15:32;;;;;;;5.60;2.73;;;;;;;5.16;92.88;101891.88;2089472;28;20283;-63
2024/03/20 04:16:34;;;;;;;5.10;2.05;;;;;;;5.26;93.26;101896.78;2086488;28;20213;-63
2024/03/20 04:17:34;;;;;;;5.43;2.05;;;;;;;4.86;92.56;101856.03;2086950;28;20196;-62
2024/03/20 04:18:35;;;;;;;5.47;2.53;;;;;;;5.14;93.18;101903.22;2085987;28;20196;-62
2024/03/20 04:19:35;;;;;;;4.70;2.13;;;;;;;4.96;94.00;101882.09;2086479;28;20200;-62
2024/03/20 04:20:36;;;;;;;5.87;2.30;;;;;;;5.17;93.99;101904.47;2086522;28;20185;-63
2024/03/20 04:21:37;;;;;;;4.40;2.37;;;;;;;5.20;94.01;101918.28;2096155;28;20665;-63
2024/03/20 04:22:41;;;;;;;6.28;2.45;;;;;;;5.18;94.02;101906.06;2086900;28;20584;-62
2024/03/20 04:23:41;;;;;;;3.55;1.77;;;;;;;5.13;94.52;101903.63;2088426;28;20196;-62
2024/03/20 04:24:42;;;;;;;4.33;2.37;;;;;;;5.17;94.60;101901.72;2085848;28;20289;-63
2024/03/20 04:25:43;;;;;;;3.73;1.70;;;;;;;5.16;95.38;101908.38;2086700;28;20188;-62
2024/03/20 04:26:43;;;;;;;3.23;2.17;;;;;;;5.17;95.44;101912.69;2086490;28;20268;-62
2024/03/20 04:27:44;;;;;;;6.27;2.27;;;;;;;5.10;96.03;101912.59;2087245;28;20272;-62
2024/03/20 04:28:48;;;;;;;3.00;1.90;;;;;;;5.09;95.72;101913.75;2087450;28;20192;-63
2024/03/20 04:29:49;;;;;;;6.72;2.30;;;;;;;5.09;95.90;101905.50;2086769;28;20312;-62
2024/03/20 04:30:49;;;;;;;3.90;2.17;;;;;;;5.03;96.88;101907.75;2088474;28;20252;-62
2024/03/20 04:31:50;;;;;;;4.23;1.90;;;;;;;4.95;97.22;101908.78;2091572;28;20200;-62
2024/03/20 04:32:50;;;;;;;2.40;1.60;;;;;;;4.96;97.70;101912.31;2085647;28;20359;-62
2024/03/20 04:33:51;;;;;;;6.50;2.33;;;;;;;4.76;98.37;101878.59;2085055;28;20196;-63
2024/03/20 04:34:51;;;;;;;4.43;2.50;;;;;;;4.82;98.53;101895.56;2087570;28;20666;-62
2024/03/20 04:35:52;;;;;;;4.60;2.13;;;;;;;5.01;98.29;101918.31;2091612;28;20332;-62
2024/03/20 04:36:52;;;;;;;4.97;2.20;;;;;;;4.91;98.37;101901.63;2089399;28;20220;-63
2024/03/20 04:37:53;;;;;;;3.63;1.93;;;;;;;4.99;99.52;101917.88;2087264;28;20201;-62
2024/03/20 04:38:54;;;;;;;4.27;2.40;;;;;;;5.04;99.04;101914.03;2089160;28;20188;-63
2024/03/20 04:39:54;;;;;;;5.88;2.70;;;;;;;4.21;99.08;101777.47;2087389;28;20202;-62
2024/03/20 04:40:55;;;;;;;4.73;2.00;;;;;;;5.04;99.50;101914.03;2087779;28;20188;-62
2024/03/20 04:41:56;;;;;;;4.47;2.07;;;;;;;5.04;99.13;101922.28;2086738;28;20202;-62
2024/03/20 04:42:57;;;;;;;3.22;1.90;;;;;;;4.96;99.47;101904.06;2086453;28;20279;-62
2024/03/20 04:43:58;;;;;;;4.55;2.33;;;;;;;5.14;99.79;101927.97;2092537;28;20186;-62
2024/03/20 04:44:59;;;;;;;4.97;1.97;;;;;;;5.22;99.74;101928.91;2091470;28;20266;-62
2024/03/20 04:46:00;;;;;;;4.77;2.37;;;;;;;4.49;98.53;101821.16;2091235;28;20185;-62
2024/03/20 04:47:00;;;;;;;6.33;2.67;;;;;;;5.24;98.98;101940.34;2089190;28;20279;-63
2024/03/20 04:48:01;;;;;;;5.67;2.37;;;;;;;5.24;98.93;101935.63;2085379;28;20199;-62